createdAt,value
2023-02-09T00:02:05.865Z,102944.69
2023-02-09T00:04:38.464Z,102946.19
2023-02-09T00:07:11.030Z,102944.53
2023-02-09T00:09:45.329Z,102938.69
2023-02-09T00:12:37.729Z,102944.31
2023-02-09T00:15:10.664Z,102950.97
2023-02-09T00:17:43.213Z,102954.69
2023-02-09T00:20:15.783Z,102951.97
2023-02-09T00:22:48.332Z,102948.09
2023-02-09T00:25:20.944Z,102946.00
2023-02-09T00:27:53.493Z,102943.81
2023-02-09T00:30:26.267Z,102949.78
2023-02-09T00:32:58.788Z,102942.09
2023-02-09T00:35:31.302Z,102939.63
2023-02-09T00:38:03.862Z,102947.00
2023-02-09T00:40:38.768Z,102946.41
2023-02-09T00:43:11.966Z,102962.19
2023-02-09T00:45:44.625Z,102952.81
2023-02-09T00:48:17.355Z,102953.69
2023-02-09T00:50:52.176Z,102956.28
2023-02-09T00:53:25.495Z,102952.38
2023-02-09T00:55:59.912Z,102960.88
2023-02-09T00:58:32.715Z,102955.38
2023-02-09T01:01:05.555Z,102960.28
2023-02-09T01:03:38.162Z,102965.16
2023-02-09T01:06:10.972Z,102958.97
2023-02-09T01:08:43.547Z,102955.16
2023-02-09T01:11:16.473Z,102951.78
2023-02-09T01:13:49.117Z,102944.38
2023-02-09T01:16:22.034Z,102948.78
2023-02-09T01:18:56.128Z,102939.19
2023-02-09T01:21:29.515Z,102938.19
2023-02-09T01:24:02.133Z,102938.19
2023-02-09T01:26:34.741Z,102945.75
2023-02-09T01:29:07.424Z,102946.97
2023-02-09T01:31:40.258Z,102949.56
2023-02-09T01:34:17.240Z,102953.25
2023-02-09T01:36:49.752Z,102940.38
2023-02-09T01:39:22.592Z,102939.34
2023-02-09T01:41:55.356Z,102942.06
2023-02-09T01:44:30.825Z,102941.06
2023-02-09T01:47:03.597Z,102950.16
2023-02-09T01:49:36.205Z,102951.03
2023-02-09T01:52:25.493Z,102945.53
2023-02-09T01:55:06.631Z,102946.34
2023-02-09T01:57:49.879Z,102939.13
2023-02-09T02:00:24.141Z,102933.75
2023-02-09T02:03:04.274Z,102936.75
2023-02-09T02:05:44.217Z,102932.75
2023-02-09T02:08:30.423Z,102930.94
2023-02-09T02:11:04.505Z,102929.84
2023-02-09T02:13:37.123Z,102935.69
2023-02-09T02:16:26.493Z,102923.88
2023-02-09T02:19:39.840Z,102921.16
2023-02-09T02:22:53.898Z,102930.50
2023-02-09T02:26:05.268Z,102937.78
2023-02-09T02:29:23.916Z,102925.72
2023-02-09T02:32:28.513Z,102921.91
2023-02-09T02:35:15.082Z,102913.13
2023-02-09T02:38:17.947Z,102914.31
2023-02-09T02:41:17.813Z,102913.34
2023-02-09T02:44:17.363Z,102911.72
2023-02-09T02:46:58.607Z,102903.94
2023-02-09T02:49:45.648Z,102905.94
2023-02-09T02:52:18.332Z,102903.63
2023-02-09T02:55:21.554Z,102888.59
2023-02-09T02:58:00.392Z,102893.34
2023-02-09T03:00:44.806Z,102899.22
2023-02-09T03:03:29.835Z,102891.16
2023-02-09T03:06:06.084Z,102896.69
2023-02-09T03:08:55.099Z,102890.50
2023-02-09T03:11:40.535Z,102884.91
2023-02-09T03:15:03.330Z,102895.25
2023-02-09T03:17:56.451Z,102894.03
2023-02-09T03:20:55.053Z,102905.97
2023-02-09T03:23:47.300Z,102904.78
2023-02-09T03:26:32.775Z,102894.66
2023-02-09T03:29:08.622Z,102890.25
2023-02-09T03:31:41.781Z,102883.50
2023-02-09T03:34:16.137Z,102896.00
2023-02-09T03:36:56.294Z,102887.66
2023-02-09T03:39:28.962Z,102898.91
2023-02-09T03:42:01.558Z,102891.72
2023-02-09T03:44:34.072Z,102893.50
2023-02-09T03:47:09.335Z,102888.56
2023-02-09T03:49:42.792Z,102887.66
2023-02-09T03:52:17.382Z,102881.56
2023-02-09T03:54:49.925Z,102882.88
2023-02-09T03:57:22.559Z,102875.44
2023-02-09T03:59:55.186Z,102875.53
2023-02-09T04:02:27.876Z,102871.59
2023-02-09T04:05:00.579Z,102861.91
2023-02-09T04:07:33.820Z,102860.94
2023-02-09T04:10:07.054Z,102864.53
2023-02-09T04:12:39.667Z,102855.47
2023-02-09T04:15:12.319Z,102851.78
2023-02-09T04:17:44.913Z,102860.66
2023-02-09T04:20:17.658Z,102841.84
2023-02-09T04:22:50.214Z,102842.94
2023-02-09T04:25:22.949Z,102832.41
2023-02-09T04:27:55.834Z,102821.69
2023-02-09T04:30:28.468Z,102828.41
2023-02-09T04:33:01.089Z,102841.75
2023-02-09T04:35:33.561Z,102837.50
2023-02-09T04:38:06.068Z,102846.94
2023-02-09T04:40:38.543Z,102842.47
2023-02-09T04:43:11.516Z,102836.38
2023-02-09T04:45:44.321Z,102830.81
2023-02-09T04:48:21.038Z,102826.50
2023-02-09T04:50:54.104Z,102815.94
2023-02-09T04:53:26.732Z,102815.75
2023-02-09T04:55:59.237Z,102828.81
2023-02-09T04:58:50.669Z,102835.00
2023-02-09T05:01:24.998Z,102832.81
2023-02-09T05:03:57.641Z,102839.19
2023-02-09T05:06:30.343Z,102831.72
2023-02-09T05:09:02.987Z,102835.09
2023-02-09T05:11:35.566Z,102843.78
2023-02-09T05:14:08.236Z,102848.28
2023-02-09T05:16:40.869Z,102833.63
2023-02-09T05:19:13.634Z,102839.50
2023-02-09T05:21:46.153Z,102846.19
2023-02-09T05:24:18.701Z,102845.84
2023-02-09T05:26:51.235Z,102840.78
2023-02-09T05:29:23.795Z,102844.88
2023-02-09T05:31:56.403Z,102858.25
2023-02-09T05:34:28.951Z,102859.53
2023-02-09T05:37:01.514Z,102861.63
2023-02-09T05:39:34.027Z,102856.06
2023-02-09T05:42:15.661Z,102864.81
2023-02-09T05:44:50.619Z,102867.31
2023-02-09T05:47:24.752Z,102863.63
2023-02-09T05:49:57.399Z,102863.03
2023-02-09T05:52:29.972Z,102866.09
2023-02-09T05:55:02.502Z,102877.84
2023-02-09T05:57:35.057Z,102871.28
2023-02-09T06:00:08.851Z,102868.69
2023-02-09T06:02:41.576Z,102879.66
2023-02-09T06:05:14.090Z,102862.13
2023-02-09T06:07:46.576Z,102857.81
2023-02-09T06:10:19.855Z,102857.81
2023-02-09T06:12:52.512Z,102848.44
2023-02-09T06:15:25.167Z,102846.75
2023-02-09T06:17:57.803Z,102834.28
2023-02-09T06:20:30.305Z,102826.09
2023-02-09T06:23:03.148Z,102830.47
2023-02-09T06:25:41.940Z,102839.47
2023-02-09T06:28:14.479Z,102833.78
2023-02-09T06:30:52.833Z,102832.97
2023-02-09T06:33:25.568Z,102841.19
2023-02-09T06:35:58.242Z,102844.69
2023-02-09T06:38:32.290Z,102858.44
2023-02-09T06:41:05.818Z,102860.44
2023-02-09T06:43:38.411Z,102880.56
2023-02-09T06:46:13.233Z,102868.81
2023-02-09T06:48:45.875Z,102877.59
2023-02-09T06:51:18.742Z,102883.78
2023-02-09T06:53:51.327Z,102875.88
2023-02-09T06:56:23.951Z,102884.06
2023-02-09T06:58:56.504Z,102887.34
2023-02-09T07:01:29.116Z,102884.84
2023-02-09T07:04:01.671Z,102896.13
2023-02-09T07:06:34.220Z,102904.00
2023-02-09T07:09:06.743Z,102908.97
2023-02-09T07:11:39.271Z,102910.78
2023-02-09T07:14:11.788Z,102914.38
2023-02-09T07:16:44.279Z,102919.25
2023-02-09T07:19:16.807Z,102925.03
2023-02-09T07:21:49.706Z,102924.97
2023-02-09T07:24:22.238Z,102923.38
2023-02-09T07:26:54.793Z,102929.47
2023-02-09T07:29:27.409Z,102927.88
2023-02-09T07:32:00.450Z,102921.16
2023-02-09T07:34:34.051Z,102924.78
2023-02-09T07:37:06.665Z,102930.06
2023-02-09T07:39:39.225Z,102918.31
2023-02-09T07:42:11.766Z,102930.97
2023-02-09T07:44:44.290Z,102917.81
2023-02-09T07:47:17.124Z,102920.63
2023-02-09T07:49:49.603Z,102918.94
2023-02-09T07:52:22.175Z,102917.53
2023-02-09T07:54:54.727Z,102923.31
2023-02-09T07:57:27.600Z,102919.94
2023-02-09T08:00:00.142Z,102923.13
2023-02-09T08:02:36.546Z,102917.66
2023-02-09T08:05:24.822Z,102913.63
2023-02-09T08:07:58.573Z,102915.41
2023-02-09T08:10:31.255Z,102907.81
2023-02-09T08:13:03.977Z,102906.59
2023-02-09T08:15:52.431Z,102914.97
2023-02-09T08:18:34.475Z,102927.44
2023-02-09T08:21:12.948Z,102918.09
2023-02-09T08:23:50.293Z,102922.66
2023-02-09T08:26:23.121Z,102918.25
2023-02-09T08:28:57.318Z,102932.28
2023-02-09T08:31:30.033Z,102933.41
2023-02-09T08:34:03.754Z,102907.53
2023-02-09T08:36:37.562Z,102907.81
2023-02-09T08:39:10.191Z,102911.03
2023-02-09T08:41:45.148Z,102901.00
2023-02-09T08:44:18.955Z,102895.63
2023-02-09T08:46:51.611Z,102897.16
2023-02-09T08:49:24.283Z,102892.41
2023-02-09T08:51:56.815Z,102892.03
2023-02-09T08:54:29.287Z,102889.03
2023-02-09T08:57:03.327Z,102884.44
2023-02-09T08:59:35.882Z,102900.25
2023-02-09T09:02:08.551Z,102907.06
2023-02-09T09:04:41.102Z,102893.38
2023-02-09T09:07:14.380Z,102888.84
2023-02-09T09:09:46.860Z,102875.25
2023-02-09T09:12:19.335Z,102886.78
2023-02-09T09:14:51.868Z,102905.59
2023-02-09T09:17:24.350Z,102906.41
2023-02-09T09:19:58.533Z,102903.53
2023-02-09T09:22:31.001Z,102901.91
2023-02-09T09:25:04.901Z,102910.25
2023-02-09T09:27:37.379Z,102910.06
2023-02-09T09:30:10.694Z,102911.06
2023-02-09T09:32:43.235Z,102915.69
2023-02-09T09:35:15.940Z,102912.72
2023-02-09T09:37:48.630Z,102923.47
2023-02-09T09:40:26.771Z,102926.47
2023-02-09T09:43:03.529Z,102919.31
2023-02-09T09:45:39.530Z,102912.56
2023-02-09T09:48:25.620Z,102902.78
2023-02-09T09:51:16.074Z,102908.69
2023-02-09T09:53:53.518Z,102914.88
2023-02-09T09:56:32.990Z,102911.25
2023-02-09T09:59:05.640Z,102921.97
2023-02-09T10:01:38.276Z,102930.78
2023-02-09T10:04:15.954Z,102923.44
2023-02-09T10:07:02.268Z,102919.44
2023-02-09T10:09:43.933Z,102922.88
2023-02-09T10:12:21.446Z,102939.81
2023-02-09T10:14:53.936Z,102926.53
2023-02-09T10:17:26.469Z,102929.97
2023-02-09T10:20:07.448Z,102933.69
2023-02-09T10:22:43.170Z,102942.69
2023-02-09T10:25:47.971Z,102933.09
2023-02-09T10:28:28.788Z,102933.44
2023-02-09T10:31:23.291Z,102918.91
2023-02-09T10:34:03.206Z,102932.88
2023-02-09T10:36:47.887Z,102920.03
2023-02-09T10:39:30.113Z,102938.50
2023-02-09T10:42:25.179Z,102939.56
2023-02-09T10:45:07.864Z,102940.06
2023-02-09T10:47:40.454Z,102940.44
2023-02-09T10:50:18.364Z,102942.66
2023-02-09T10:53:12.457Z,102953.59
2023-02-09T10:55:45.468Z,102956.66
2023-02-09T10:58:27.629Z,102955.13
2023-02-09T11:01:34.446Z,102940.47
2023-02-09T11:04:20.445Z,102944.78
2023-02-09T11:06:59.784Z,102940.53
2023-02-09T11:09:44.369Z,102951.00
2023-02-09T11:12:20.388Z,102939.19
2023-02-09T11:14:52.959Z,102934.50
2023-02-09T11:17:40.062Z,102937.81
2023-02-09T11:20:35.947Z,102938.72
2023-02-09T11:23:41.895Z,102925.50
2023-02-09T11:26:38.200Z,102931.72
2023-02-09T11:29:27.229Z,102938.47
2023-02-09T11:32:19.291Z,102949.16
2023-02-09T11:35:34.054Z,102951.03
2023-02-09T11:38:18.115Z,102940.34
2023-02-09T11:40:57.955Z,102940.75
2023-02-09T11:43:41.952Z,102941.91
2023-02-09T11:46:22.175Z,102935.66
2023-02-09T11:49:07.207Z,102929.34
2023-02-09T11:51:43.280Z,102940.13
2023-02-09T11:54:25.062Z,102944.19
2023-02-09T11:57:07.647Z,102956.03
2023-02-09T11:59:49.847Z,102947.06
2023-02-09T12:02:59.560Z,102950.13
2023-02-09T12:05:32.447Z,102948.63
2023-02-09T12:08:40.500Z,102953.53
2023-02-09T12:11:45.995Z,102931.88
2023-02-09T12:14:35.324Z,102932.41
2023-02-09T12:17:20.032Z,102922.50
2023-02-09T12:20:02.241Z,102934.16
2023-02-09T12:22:34.936Z,102936.66
2023-02-09T12:25:53.441Z,102937.03
2023-02-09T12:28:32.339Z,102937.44
2023-02-09T12:31:23.878Z,102943.47
2023-02-09T12:33:59.584Z,102930.84
2023-02-09T12:36:34.635Z,102922.84
2023-02-09T12:39:26.626Z,102929.19
2023-02-09T12:42:02.265Z,102934.41
2023-02-09T12:44:38.925Z,102934.25
2023-02-09T12:47:41.598Z,102927.03
2023-02-09T12:50:33.783Z,102927.09
2023-02-09T12:53:21.904Z,102921.56
2023-02-09T12:56:12.595Z,102921.13
2023-02-09T12:58:45.320Z,102912.63
2023-02-09T13:01:18.174Z,102926.03
2023-02-09T13:04:01.073Z,102919.13
2023-02-09T13:06:49.007Z,102917.59
2023-02-09T13:09:40.857Z,102917.44
2023-02-09T13:12:22.525Z,102908.50
2023-02-09T13:14:55.155Z,102898.59
2023-02-09T13:17:37.114Z,102904.75
2023-02-09T13:20:31.135Z,102896.38
2023-02-09T13:23:25.856Z,102888.53
2023-02-09T13:26:15.739Z,102892.53
2023-02-09T13:28:49.112Z,102894.31
2023-02-09T13:31:39.716Z,102900.63
2023-02-09T13:34:44.352Z,102895.41
2023-02-09T13:37:45.327Z,102891.94
2023-02-09T13:40:23.755Z,102887.03
2023-02-09T13:43:35.618Z,102890.69
2023-02-09T13:46:25.778Z,102894.63
2023-02-09T13:49:19.988Z,102902.03
2023-02-09T13:52:21.020Z,102899.03
2023-02-09T13:54:54.478Z,102903.81
2023-02-09T13:57:40.668Z,102899.72
2023-02-09T14:00:22.324Z,102895.53
2023-02-09T14:03:02.657Z,102905.03
2023-02-09T14:05:47.537Z,102911.06
2023-02-09T14:08:22.322Z,102909.81
2023-02-09T14:11:05.814Z,102918.13
2023-02-09T14:13:46.820Z,102913.38
2023-02-09T14:16:23.679Z,102918.50
2023-02-09T14:19:01.362Z,102924.25
2023-02-09T14:21:43.274Z,102924.63
2023-02-09T14:24:20.254Z,102925.22
2023-02-09T14:27:20.722Z,102915.31
2023-02-09T14:29:55.145Z,102924.47
2023-02-09T14:32:36.714Z,102922.34
2023-02-09T14:35:24.444Z,102918.50
2023-02-09T14:38:01.433Z,102921.63
2023-02-09T14:40:37.208Z,102927.47
2023-02-09T14:43:12.571Z,102925.69
2023-02-09T14:45:57.197Z,102919.34
2023-02-09T14:48:31.402Z,102916.78
2023-02-09T14:51:16.433Z,102924.59
2023-02-09T14:53:50.106Z,102925.88
2023-02-09T14:56:34.415Z,102921.28
2023-02-09T14:59:16.961Z,102922.16
2023-02-09T15:01:54.297Z,102922.72
2023-02-09T15:04:26.942Z,102925.03
2023-02-09T15:07:03.468Z,102932.19
2023-02-09T15:09:37.858Z,102926.97
2023-02-09T15:12:24.239Z,102934.31
2023-02-09T15:15:01.429Z,102936.16
2023-02-09T15:17:34.065Z,102938.44
2023-02-09T15:20:07.367Z,102933.44
2023-02-09T15:22:39.960Z,102937.25
2023-02-09T15:25:14.682Z,102933.00
2023-02-09T15:27:56.913Z,102936.28
2023-02-09T15:30:34.678Z,102943.00
2023-02-09T15:33:12.424Z,102946.91
2023-02-09T15:35:45.321Z,102948.09
2023-02-09T15:38:18.733Z,102954.66
2023-02-09T15:41:09.885Z,102961.41
2023-02-09T15:44:01.527Z,102953.66
2023-02-09T15:46:52.700Z,102959.22
2023-02-09T15:49:25.433Z,102979.44
2023-02-09T15:51:58.079Z,102975.88
2023-02-09T15:54:32.876Z,102976.38
2023-02-09T15:57:09.964Z,102984.56
2023-02-09T15:59:42.619Z,102986.28
2023-02-09T16:02:17.256Z,102987.19
2023-02-09T16:04:49.854Z,102998.06
2023-02-09T16:07:26.342Z,102989.00
2023-02-09T16:09:58.946Z,102987.19
2023-02-09T16:12:31.512Z,102991.50
2023-02-09T16:15:15.197Z,102993.38
2023-02-09T16:17:47.731Z,103002.63
2023-02-09T16:20:20.740Z,103002.63
2023-02-09T16:23:19.724Z,102997.56
2023-02-09T16:26:01.382Z,103001.91
2023-02-09T16:28:34.384Z,103002.38
2023-02-09T16:31:09.868Z,102997.56
2023-02-09T16:33:43.446Z,103012.69
2023-02-09T16:36:21.948Z,103003.97
2023-02-09T16:38:54.593Z,103013.59
2023-02-09T16:41:45.625Z,103021.47
2023-02-09T16:44:24.703Z,103021.97
2023-02-09T16:47:01.298Z,103019.69
2023-02-09T16:49:39.491Z,103030.78
2023-02-09T16:52:30.746Z,103042.38
2023-02-09T16:55:14.410Z,103040.44
2023-02-09T16:57:46.931Z,103034.56
2023-02-09T17:00:19.795Z,103042.28
2023-02-09T17:03:00.445Z,103046.53
2023-02-09T17:05:37.161Z,103047.25
2023-02-09T17:08:21.942Z,103055.28
2023-02-09T17:10:56.393Z,103051.44
2023-02-09T17:13:30.908Z,103059.72
2023-02-09T17:16:06.910Z,103064.47
2023-02-09T17:18:44.053Z,103069.66
2023-02-09T17:21:26.442Z,103074.63
2023-02-09T17:23:58.995Z,103074.41
2023-02-09T17:26:31.650Z,103087.06
2023-02-09T17:29:04.272Z,103075.44
2023-02-09T17:31:52.443Z,103088.25
2023-02-09T17:34:28.272Z,103087.78
2023-02-09T17:37:00.887Z,103090.78
2023-02-09T17:39:33.412Z,103095.84
2023-02-09T17:42:06.115Z,103099.78
2023-02-09T17:44:45.937Z,103100.75
2023-02-09T17:47:20.627Z,103106.00
2023-02-09T17:49:53.288Z,103104.38
2023-02-09T17:52:25.815Z,103110.78
2023-02-09T17:54:59.427Z,103112.81
2023-02-09T17:57:31.985Z,103110.47
2023-02-09T18:00:05.280Z,103101.03
2023-02-09T18:02:37.870Z,103103.13
2023-02-09T18:05:19.512Z,103104.72
2023-02-09T18:07:53.560Z,103110.66
2023-02-09T18:10:26.377Z,103117.38
2023-02-09T18:12:58.937Z,103108.50
2023-02-09T18:15:36.312Z,103107.63
2023-02-09T18:18:09.236Z,103106.69
2023-02-09T18:20:42.460Z,103109.06
2023-02-09T18:23:15.825Z,103109.41
2023-02-09T18:25:50.091Z,103116.75
2023-02-09T18:28:22.800Z,103123.63
2023-02-09T18:30:55.473Z,103121.13
2023-02-09T18:33:28.212Z,103122.91
2023-02-09T18:36:00.799Z,103122.91
2023-02-09T18:38:35.421Z,103136.00
2023-02-09T18:41:12.676Z,103126.91
2023-02-09T18:43:45.230Z,103136.84
2023-02-09T18:46:19.676Z,103132.88
2023-02-09T18:48:56.626Z,103142.41
2023-02-09T18:51:31.198Z,103146.53
2023-02-09T18:54:05.521Z,103150.25
2023-02-09T18:56:38.500Z,103156.81
2023-02-09T18:59:11.206Z,103150.84
2023-02-09T19:01:45.220Z,103147.03
2023-02-09T19:04:18.666Z,103150.78
2023-02-09T19:06:52.285Z,103147.97
2023-02-09T19:09:24.937Z,103148.03
2023-02-09T19:11:57.829Z,103150.97
2023-02-09T19:14:39.462Z,103147.50
2023-02-09T19:17:17.493Z,103156.22
2023-02-09T19:19:52.717Z,103158.72
2023-02-09T19:22:25.667Z,103159.97
2023-02-09T19:24:58.709Z,103168.34
2023-02-09T19:27:31.431Z,103159.13
2023-02-09T19:30:04.917Z,103159.97
2023-02-09T19:32:37.632Z,103170.06
2023-02-09T19:35:11.098Z,103169.81
2023-02-09T19:37:43.977Z,103172.84
2023-02-09T19:40:41.331Z,103174.19
2023-02-09T19:43:14.212Z,103179.69
2023-02-09T19:45:55.623Z,103186.47
2023-02-09T19:48:28.352Z,103189.28
2023-02-09T19:51:01.050Z,103190.81
2023-02-09T19:53:34.896Z,103187.34
2023-02-09T19:56:07.863Z,103189.63
2023-02-09T19:58:40.602Z,103191.88
2023-02-09T20:01:13.364Z,103189.06
2023-02-09T20:03:48.163Z,103197.91
2023-02-09T20:06:20.961Z,103199.72
2023-02-09T20:08:54.068Z,103196.78
2023-02-09T20:11:28.093Z,103196.75
2023-02-09T20:16:38.487Z,103207.97
2023-02-09T20:19:11.281Z,103213.47
2023-02-09T20:21:43.961Z,103214.94
2023-02-09T20:24:16.797Z,103217.66
2023-02-09T20:26:49.525Z,103203.34
2023-02-09T20:29:22.620Z,103213.69
2023-02-09T20:31:55.416Z,103206.19
2023-02-09T20:34:28.833Z,103211.03
2023-02-09T20:37:01.553Z,103211.47
2023-02-09T20:39:34.426Z,103209.94
2023-02-09T20:42:25.698Z,103212.25
2023-02-09T20:45:17.141Z,103221.84
2023-02-09T20:47:49.906Z,103231.38
2023-02-09T20:50:22.625Z,103238.06
2023-02-09T20:52:55.400Z,103241.94
2023-02-09T20:55:29.730Z,103237.84
2023-02-09T20:58:02.495Z,103233.56
2023-02-09T21:00:35.274Z,103230.97
2023-02-09T21:03:08.220Z,103240.03
2023-02-09T21:05:40.931Z,103233.91
2023-02-09T21:08:13.559Z,103248.16
2023-02-09T21:10:46.380Z,103248.16
2023-02-09T21:13:19.112Z,103244.34
2023-02-09T21:15:52.088Z,103241.41
2023-02-09T21:18:25.281Z,103249.63
2023-02-09T21:20:59.456Z,103251.16
2023-02-09T21:23:32.608Z,103254.94
2023-02-09T21:26:09.642Z,103258.72
2023-02-09T21:28:43.921Z,103262.84
2023-02-09T21:31:21.311Z,103256.72
2023-02-09T21:33:54.185Z,103249.56
2023-02-09T21:36:26.859Z,103253.97
2023-02-09T21:38:59.403Z,103252.63
2023-02-09T21:41:50.308Z,103266.22
2023-02-09T21:44:23.546Z,103256.06
2023-02-09T21:46:56.094Z,103256.91
2023-02-09T21:49:31.560Z,103271.31
2023-02-09T21:52:04.516Z,103267.75
2023-02-09T21:54:37.290Z,103279.31
2023-02-09T21:57:09.936Z,103274.84
2023-02-09T21:59:42.891Z,103275.50
2023-02-09T22:02:18.439Z,103275.72
2023-02-09T22:04:51.140Z,103267.47
2023-02-09T22:07:23.806Z,103274.63
2023-02-09T22:09:56.312Z,103273.78
2023-02-09T22:12:29.363Z,103281.91
2023-02-09T22:15:02.446Z,103279.34
2023-02-09T22:17:37.481Z,103282.56
2023-02-09T22:20:12.670Z,103277.94
2023-02-09T22:22:46.170Z,103275.81
2023-02-09T22:25:18.795Z,103272.00
2023-02-09T22:27:51.766Z,103273.28
2023-02-09T22:30:24.521Z,103262.75
2023-02-09T22:32:57.306Z,103271.53
2023-02-09T22:35:29.966Z,103266.53
2023-02-09T22:38:02.532Z,103261.94
2023-02-09T22:40:35.333Z,103267.56
2023-02-09T22:43:07.898Z,103264.84
2023-02-09T22:45:40.602Z,103265.50
2023-02-09T22:48:13.451Z,103262.28
2023-02-09T22:50:46.398Z,103272.34
2023-02-09T22:53:22.231Z,103275.06
2023-02-09T22:55:55.114Z,103260.44
2023-02-09T22:58:27.790Z,103268.81
2023-02-09T23:01:00.616Z,103266.72
2023-02-09T23:03:34.156Z,103270.38
2023-02-09T23:06:10.997Z,103271.19
2023-02-09T23:08:44.553Z,103274.63
2023-02-09T23:11:17.637Z,103281.06
2023-02-09T23:13:57.669Z,103281.72
2023-02-09T23:16:36.827Z,103280.38
2023-02-09T23:19:14.539Z,103281.81
2023-02-09T23:21:50.435Z,103280.50
2023-02-09T23:24:24.439Z,103281.88
2023-02-09T23:26:57.842Z,103283.97
2023-02-09T23:29:31.305Z,103280.03
2023-02-09T23:32:04.822Z,103289.03
2023-02-09T23:34:37.432Z,103292.19
2023-02-09T23:37:18.804Z,103291.09
2023-02-09T23:39:56.376Z,103283.72
2023-02-09T23:42:28.914Z,103293.47
2023-02-09T23:45:01.576Z,103290.31
2023-02-09T23:47:34.129Z,103280.31
2023-02-09T23:50:06.747Z,103286.16
2023-02-09T23:52:39.388Z,103282.47
2023-02-09T23:55:12.191Z,103283.72
2023-02-09T23:57:44.781Z,103289.25
